Time;durP1;ratioP1;P1;durP2;ratioP2;P2;SDS_P1;SDS_P2;PMS_P1;PMS_P2;Temp;Humidity;BMP_temperature;BMP_pressure;BME280_temperature;BME280_humidity;BME280_pressure;Samples;Min_cycle;Max_cycle;Signal;HPM_P1;HPM_P2
2022/07/15 01:14:09;;;;;;;4.13;1.60;;;;;;;25.84;47.65;100285.59;5247627;22;20089;-89
2022/07/15 01:20:06;;;;;;;3.53;2.08;;;;;;;25.87;47.89;100269.59;5034978;22;20046;-85
2022/07/15 01:22:38;;;;;;;6.97;2.65;;;;;;;25.95;48.14;100271.75;4978049;28;20115;-87
2022/07/15 01:25:05;;;;;;;4.13;1.63;;;;;;;26.05;47.71;100277.22;4984112;28;20058;-87
2022/07/15 01:27:32;;;;;;;3.83;1.55;;;;;;;25.89;48.43;100278.28;4979344;28;20045;-84
2022/07/15 01:29:59;;;;;;;7.30;1.50;;;;;;;25.73;48.42;100275.78;4974111;28;20524;-88
2022/07/15 01:32:28;;;;;;;3.78;1.92;;;;;;;25.63;48.72;100282.81;4975541;28;20046;-86
2022/07/15 01:34:54;;;;;;;4.70;1.48;;;;;;;25.60;47.68;100285.25;4970240;28;20416;-84
2022/07/15 01:37:22;;;;;;;2.30;1.42;;;;;;;25.61;47.18;100282.28;4974919;28;20050;-82
2022/07/15 01:39:57;;;;;;;5.43;1.50;;;;;;;25.53;47.46;100285.50;4954033;29;20045;-85
2022/07/15 01:42:24;;;;;;;3.30;1.70;;;;;;;25.47;46.39;100293.84;4945382;29;20055;-83
2022/07/15 01:44:52;;;;;;;2.45;1.60;;;;;;;25.47;47.20;100285.72;4979548;28;20047;-84
2022/07/15 01:47:18;;;;;;;2.20;1.67;;;;;;;25.51;47.03;100289.56;4962788;28;20038;-85
2022/07/15 01:49:44;;;;;;;2.88;2.00;;;;;;;25.59;48.25;100283.59;4963431;28;20110;-88
2022/07/15 01:52:10;;;;;;;6.22;3.30;;;;;;;25.75;50.53;100276.34;4980097;28;20031;-88
2022/07/15 01:54:59;;;;;;;7.13;3.90;;;;;;;25.70;52.87;100272.53;4962786;28;20038;-84
2022/07/15 01:57:25;;;;;;;8.77;4.60;;;;;;;25.62;54.19;100277.69;4979298;29;20058;-86
2022/07/15 01:59:54;;;;;;;10.40;5.95;;;;;;;25.51;56.10;100278.72;4962757;28;20054;-85
2022/07/15 02:02:29;;;;;;;9.93;6.82;;;;;;;25.33;58.69;100269.09;4954922;29;20374;-84
2022/07/15 02:04:54;;;;;;;12.63;6.15;;;;;;;25.19;59.99;100268.78;4948135;29;20038;-89
2022/07/15 02:07:23;;;;;;;11.93;6.45;;;;;;;25.26;60.65;100276.66;4942643;29;20039;-89
2022/07/15 02:09:48;;;;;;;16.15;7.32;;;;;;;25.19;61.91;100267.94;4941591;29;20397;-88
2022/07/15 02:12:14;;;;;;;15.88;7.45;;;;;;;25.07;62.87;100260.03;4941662;29;20042;-86
2022/07/15 02:14:45;;;;;;;11.00;7.20;;;;;;;24.97;64.01;100265.41;4941962;29;20027;-90
2022/07/15 02:17:11;;;;;;;14.82;7.55;;;;;;;24.92;64.93;100265.41;4959603;29;20042;-90
2022/07/15 02:19:40;;;;;;;13.60;8.27;;;;;;;24.97;65.10;100265.41;4948380;29;20130;-89
2022/07/15 02:22:05;;;;;;;10.93;7.85;;;;;;;24.97;65.18;100259.16;4965745;29;20523;-87
2022/07/15 02:24:31;;;;;;;18.73;8.52;;;;;;;24.92;65.50;100267.28;4927275;29;20516;-90
2022/07/15 02:26:57;;;;;;;11.02;7.18;;;;;;;24.86;65.68;100260.19;4940536;29;20027;-87
2022/07/15 02:29:22;;;;;;;11.45;8.00;;;;;;;24.73;66.09;100264.13;4958126;29;20039;-87
2022/07/15 02:31:48;;;;;;;11.27;7.30;;;;;;;24.62;65.81;100259.75;4927391;29;20093;-89
2022/07/15 02:34:14;;;;;;;7.85;6.50;;;;;;;24.55;65.26;100261.84;4940779;29;20041;-86
2022/07/15 02:36:40;;;;;;;13.85;6.55;;;;;;;24.43;66.61;100255.78;4926895;29;20123;-91
2022/07/15 02:39:08;;;;;;;12.35;6.88;;;;;;;24.42;66.29;100259.59;4928246;29;20433;-92
2022/07/15 02:41:34;;;;;;;11.25;6.40;;;;;;;24.45;66.20;100256.34;4958277;29;20118;-88
2022/07/15 02:44:07;;;;;;;9.23;6.00;;;;;;;24.45;65.85;100254.47;4961048;29;20205;-87
2022/07/15 02:46:34;;;;;;;8.82;5.68;;;;;;;24.33;66.32;100255.72;4948934;29;20051;-86
2022/07/15 02:49:00;;;;;;;9.48;6.35;;;;;;;24.40;66.31;100253.59;4950751;29;20067;-86
2022/07/15 02:51:25;;;;;;;8.43;5.63;;;;;;;24.39;65.56;100254.69;4954747;29;20027;-86
2022/07/15 02:53:51;;;;;;;11.82;5.28;;;;;;;24.34;66.12;100254.63;4944722;29;20039;-88
2022/07/15 02:56:21;;;;;;;10.73;5.75;;;;;;;24.21;66.12;100249.66;4960672;29;20070;-91
2022/07/15 02:58:46;;;;;;;7.32;5.07;;;;;;;24.20;66.13;100254.25;4961540;29;20114;-88
2022/07/15 03:01:13;;;;;;;9.88;5.28;;;;;;;24.11;65.50;100250.34;4944155;29;20039;-92
2022/07/15 03:03:38;;;;;;;11.82;5.43;;;;;;;24.01;66.27;100256.50;4944618;29;20031;-88
2022/07/15 03:06:09;;;;;;;9.52;5.03;;;;;;;24.02;65.10;100252.72;4945596;29;20083;-89
2022/07/15 03:08:36;;;;;;;8.35;4.55;;;;;;;24.16;65.21;100256.66;4962239;29;20039;-87
2022/07/15 03:11:05;;;;;;;8.15;5.40;;;;;;;24.10;64.84;100257.66;4927913;29;20477;-87
2022/07/15 03:13:31;;;;;;;14.82;4.90;;;;;;;24.06;64.14;100256.53;4955819;29;20124;-91
2022/07/15 03:15:59;;;;;;;12.65;5.13;;;;;;;24.03;64.44;100259.75;4938721;29;20031;-88
2022/07/15 03:18:25;;;;;;;9.00;5.03;;;;;;;23.99;64.24;100253.25;4940736;29;20067;-88
2022/07/15 03:20:51;;;;;;;8.70;3.90;;;;;;;24.20;62.64;100262.38;4939516;29;20131;-87
2022/07/15 03:23:16;;;;;;;6.68;4.43;;;;;;;24.05;62.69;100260.31;4959035;28;20035;-89
2022/07/15 03:25:43;;;;;;;9.30;4.15;;;;;;;24.13;62.56;100259.06;4942701;29;20389;-86
2022/07/15 03:28:11;;;;;;;6.22;3.83;;;;;;;24.24;62.38;100258.06;4944414;29;20031;-87
2022/07/15 03:30:38;;;;;;;8.73;3.90;;;;;;;24.15;62.26;100263.16;4945080;29;20043;-92
2022/07/15 03:33:04;;;;;;;8.73;3.70;;;;;;;24.12;61.86;100269.09;4942648;29;20046;-87
2022/07/15 03:35:30;;;;;;;8.85;3.15;;;;;;;24.03;61.80;100264.34;4959919;29;20485;-89
2022/07/15 03:37:59;;;;;;;5.10;3.22;;;;;;;23.99;61.76;100272.19;4943618;29;20485;-90
2022/07/15 03:40:25;;;;;;;4.03;2.90;;;;;;;23.97;58.99;100271.59;4944735;29;20143;-87
2022/07/15 03:42:50;;;;;;;8.10;2.92;;;;;;;23.96;58.08;100275.38;4944572;29;20063;-88
2022/07/15 03:45:16;;;;;;;4.63;2.40;;;;;;;23.93;57.27;100267.78;4948165;29;20058;-87
2022/07/15 03:47:42;;;;;;;5.50;2.22;;;;;;;23.94;57.03;100271.28;4968434;29;20042;-88
2022/07/15 03:50:11;;;;;;;4.60;2.10;;;;;;;24.18;56.67;100275.38;4929218;29;20134;-84
2022/07/15 03:52:41;;;;;;;4.30;2.17;;;;;;;24.27;55.97;100275.69;4943372;29;20041;-86
2022/07/15 03:55:09;;;;;;;3.35;2.10;;;;;;;24.39;55.80;100279.06;4945878;29;20035;-86
2022/07/15 03:57:35;;;;;;;7.43;2.15;;;;;;;24.45;55.29;100280.75;4946243;29;20058;-89
2022/07/15 04:00:03;;;;;;;7.72;1.98;;;;;;;24.31;55.78;100271.41;4963431;29;20039;-90
2022/07/15 04:02:40;;;;;;;3.05;1.90;;;;;;;24.23;54.98;100277.31;4963351;29;20039;-86
2022/07/15 04:05:07;;;;;;;10.77;2.00;;;;;;;24.22;54.36;100275.66;4947624;29;20051;-88
2022/07/15 04:07:32;;;;;;;6.88;1.75;;;;;;;24.11;54.92;100274.72;4946676;29;20027;-87
2022/07/15 04:09:58;;;;;;;8.27;2.22;;;;;;;24.06;54.86;100267.34;4962825;29;20405;-86
2022/07/15 04:12:23;;;;;;;3.67;2.53;;;;;;;23.93;55.03;100270.47;4961060;29;20031;-89
2022/07/15 04:14:50;;;;;;;5.00;2.13;;;;;;;23.90;55.50;100271.00;4961280;29;20031;-85
2022/07/15 04:17:17;;;;;;;3.72;2.25;;;;;;;23.87;56.39;100265.25;4964500;29;20535;-88
2022/07/15 04:19:42;;;;;;;9.95;1.90;;;;;;;23.86;56.69;100264.47;4962959;29;20044;-86
2022/07/15 04:22:08;;;;;;;6.05;2.00;;;;;;;23.90;57.12;100264.75;4944847;29;20035;-87
2022/07/15 04:24:40;;;;;;;8.63;2.10;;;;;;;23.93;57.52;100259.66;4944288;29;20053;-85
2022/07/15 04:27:10;;;;;;;5.43;2.13;;;;;;;23.96;57.19;100267.25;4943179;29;20392;-87
2022/07/15 04:29:36;;;;;;;11.93;2.22;;;;;;;23.97;56.45;100259.94;4960177;29;20050;-86
2022/07/15 04:32:03;;;;;;;7.95;2.08;;;;;;;24.10;56.17;100265.78;4942450;29;20035;-90
2022/07/15 04:34:36;;;;;;;6.47;2.30;;;;;;;24.22;55.53;100257.53;4939666;29;20039;-89
2022/07/15 04:37:04;;;;;;;7.40;2.42;;;;;;;24.42;55.46;100267.72;4971725;29;20366;-90
2022/07/15 04:39:33;;;;;;;4.20;2.42;;;;;;;24.50;55.32;100254.50;4926859;29;20039;-87
2022/07/15 04:41:59;;;;;;;5.15;2.50;;;;;;;24.50;55.15;100253.66;4944438;29;20468;-90
2022/07/15 04:44:24;;;;;;;7.97;2.38;;;;;;;24.42;55.46;100256.88;4944319;29;20027;-88
2022/07/15 04:46:55;;;;;;;7.07;2.45;;;;;;;24.40;56.02;100259.00;4933750;29;20098;-88
2022/07/15 04:52:32;;;;;;;4.13;2.53;;;;;;;24.37;55.88;100249.50;4948592;29;20043;-88
2022/07/15 04:54:58;;;;;;;9.75;2.28;;;;;;;24.40;56.40;100253.59;4945585;29;20054;-86
2022/07/15 04:57:27;;;;;;;10.48;2.85;;;;;;;24.60;55.41;100253.75;4948282;29;20045;-87
2022/07/15 04:59:54;;;;;;;17.40;2.63;;;;;;;24.73;54.89;100253.28;4944072;29;20046;-91
2022/07/15 05:02:22;;;;;;;11.05;2.63;;;;;;;24.76;54.52;100252.75;4948991;29;20043;-86
2022/07/15 05:04:51;;;;;;;10.98;2.65;;;;;;;24.86;54.37;100252.88;4945417;29;20043;-89
2022/07/15 05:07:20;;;;;;;6.55;2.42;;;;;;;24.95;54.25;100253.19;4948365;29;20059;-89
2022/07/15 05:10:02;;;;;;;10.02;2.63;;;;;;;24.97;54.01;100249.13;4965393;29;20059;-89
2022/07/15 05:12:37;;;;;;;7.38;2.42;;;;;;;25.05;52.89;100256.78;4952004;29;20035;-89
2022/07/15 05:15:04;;;;;;;3.08;2.10;;;;;;;25.19;52.72;100251.66;4954316;29;20070;-89
2022/07/15 05:17:30;;;;;;;6.85;2.33;;;;;;;25.28;52.75;100254.72;4948695;29;20036;-88
2022/07/15 05:19:56;;;;;;;5.82;2.75;;;;;;;25.35;53.45;100247.16;4949860;29;20042;-89
2022/07/15 05:22:35;;;;;;;9.90;2.28;;;;;;;25.47;53.07;100258.59;4933438;29;20035;-89
2022/07/15 05:25:00;;;;;;;6.38;2.17;;;;;;;25.59;52.78;100256.47;4952339;29;20051;-86
2022/07/15 05:27:29;;;;;;;5.68;2.08;;;;;;;25.69;52.34;100256.50;4991777;23;20047;-90
2022/07/15 05:29:55;;;;;;;12.13;2.15;;;;;;;25.80;51.81;100258.16;4965558;28;20030;-91
2022/07/15 05:32:21;;;;;;;8.50;2.65;;;;;;;25.95;51.06;100260.91;4966026;28;20046;-90
2022/07/15 05:34:47;;;;;;;9.80;2.25;;;;;;;25.99;51.88;100264.72;4945416;28;20035;-92
2022/07/15 05:37:16;;;;;;;7.50;2.17;;;;;;;26.16;50.80;100267.19;4962746;28;20073;-89
2022/07/15 05:39:53;;;;;;;6.13;2.03;;;;;;;26.30;50.28;100272.91;4964043;28;20043;-90
2022/07/15 05:42:27;;;;;;;5.18;2.33;;;;;;;26.35;50.58;100270.22;4984724;28;20030;-91
2022/07/15 05:44:57;;;;;;;10.48;2.40;;;;;;;26.39;50.33;100279.44;4981660;28;20018;-86
2022/07/15 05:47:27;;;;;;;3.72;2.30;;;;;;;26.55;49.34;100275.63;4983252;28;20015;-89
2022/07/15 05:49:55;;;;;;;10.35;2.35;;;;;;;26.71;49.32;100280.78;4999255;28;20034;-88
2022/07/15 05:52:26;;;;;;;8.55;2.80;;;;;;;26.96;49.29;100288.13;4975994;28;20477;-89
2022/07/15 05:54:52;;;;;;;4.53;2.47;;;;;;;27.18;48.40;100285.88;4966234;28;20069;-88
2022/07/15 05:57:17;;;;;;;11.88;2.85;;;;;;;27.40;48.08;100279.28;4980603;28;20031;-91
2022/07/15 05:59:52;;;;;;;6.82;2.63;;;;;;;27.61;46.91;100286.28;4971372;28;20043;-90
2022/07/15 06:02:39;;;;;;;9.35;2.65;;;;;;;27.81;47.65;100278.00;4972993;28;20122;-91
2022/07/15 06:05:06;;;;;;;16.30;2.88;;;;;;;28.06;46.01;100275.16;4982877;28;20051;-90
2022/07/15 06:07:31;;;;;;;21.38;3.20;;;;;;;28.35;45.29;100283.38;4971578;28;20030;-88
2022/07/15 06:09:57;;;;;;;14.52;3.05;;;;;;;28.65;44.18;100288.56;4967943;28;20031;-90
2022/07/15 06:12:24;;;;;;;12.05;2.67;;;;;;;28.83;43.57;100284.34;4984061;28;20559;-88
2022/07/15 06:14:50;;;;;;;14.82;3.22;;;;;;;28.93;43.61;100292.44;4964422;28;20125;-89
2022/07/15 06:17:19;;;;;;;14.93;3.15;;;;;;;29.24;42.95;100290.97;4965345;28;20037;-91
2022/07/15 06:19:45;;;;;;;8.32;2.67;;;;;;;29.72;40.91;100296.41;4964938;28;20031;-88
2022/07/15 06:22:11;;;;;;;13.05;2.85;;;;;;;30.09;39.81;100295.66;4967946;28;20039;-86
2022/07/15 06:24:37;;;;;;;7.60;2.75;;;;;;;30.57;37.06;100293.53;4969462;28;20097;-86
2022/07/15 06:27:04;;;;;;;7.53;2.50;;;;;;;30.02;38.95;100301.50;4980234;28;20037;-85
2022/07/15 06:29:32;;;;;;;17.23;2.67;;;;;;;29.50;39.79;100293.44;4963336;28;20050;-87
2022/07/15 06:32:11;;;;;;;6.05;2.60;;;;;;;30.44;37.10;100297.03;4982874;28;20031;-88
2022/07/15 06:34:37;;;;;;;10.02;3.08;;;;;;;30.86;36.50;100296.81;4981060;28;20118;-91
2022/07/15 06:37:03;;;;;;;7.72;2.72;;;;;;;30.90;36.08;100300.59;4960909;28;20078;-91
2022/07/15 06:39:31;;;;;;;8.30;2.67;;;;;;;30.79;36.36;100301.91;4962852;28;20106;-91
2022/07/15 06:42:00;;;;;;;8.73;2.78;;;;;;;32.05;34.35;100309.53;4971944;28;20070;-88
2022/07/15 06:44:27;;;;;;;11.93;2.28;;;;;;;32.39;34.72;100308.97;4985192;28;20023;-90
2022/07/15 06:46:56;;;;;;;14.80;2.83;;;;;;;32.26;36.21;100310.66;4945110;29;20389;-87
2022/07/15 06:49:22;;;;;;;12.15;2.75;;;;;;;32.70;35.61;100305.19;4964535;29;20032;-88
2022/07/15 06:51:51;;;;;;;16.15;3.00;;;;;;;32.42;35.86;100298.19;4925188;29;20047;-92
2022/07/15 06:54:20;;;;;;;16.85;2.90;;;;;;;32.45;35.80;100302.25;4949309;29;20081;-91
2022/07/15 06:56:48;;;;;;;11.50;2.78;;;;;;;32.41;34.77;100298.53;4962976;28;20082;-88
2022/07/15 06:59:22;;;;;;;8.32;2.30;;;;;;;32.29;34.69;100301.81;4954030;29;20040;-87
2022/07/15 07:01:48;;;;;;;8.35;2.22;;;;;;;32.76;33.15;100305.88;4947039;29;20067;-89
2022/07/15 07:04:14;;;;;;;15.85;2.38;;;;;;;33.69;31.39;100304.66;4964761;29;20043;-90
2022/07/15 07:06:39;;;;;;;6.20;2.38;;;;;;;33.63;31.04;100300.44;4945054;29;20031;-88
2022/07/15 07:09:05;;;;;;;14.13;2.53;;;;;;;33.25;32.16;100307.56;4962282;29;20031;-90
2022/07/15 07:11:32;;;;;;;13.20;2.40;;;;;;;34.55;30.19;100304.69;4967773;29;20043;-90
2022/07/15 07:13:59;;;;;;;8.88;2.42;;;;;;;33.15;31.89;100303.19;4964623;29;20050;-88
2022/07/15 07:16:25;;;;;;;9.23;2.30;;;;;;;34.05;30.60;100301.63;4951393;29;20032;-90
2022/07/15 07:18:51;;;;;;;7.47;1.98;;;;;;;33.83;31.23;100301.78;4966351;29;20452;-87
2022/07/15 07:21:20;;;;;;;9.15;2.45;;;;;;;34.22;29.95;100300.84;4945739;29;20058;-86
2022/07/15 07:23:46;;;;;;;12.60;2.15;;;;;;;34.23;29.87;100300.53;4966658;29;20039;-87
2022/07/15 07:26:13;;;;;;;13.82;1.95;;;;;;;33.50;31.03;100295.06;4972945;29;20042;-85
2022/07/15 07:28:40;;;;;;;25.88;2.55;;;;;;;33.08;31.31;100293.72;4964315;29;20047;-90
2022/07/15 07:31:09;;;;;;;5.95;2.10;;;;;;;34.04;30.24;100297.25;4958621;29;20118;-83
2022/07/15 07:33:35;;;;;;;13.57;1.98;;;;;;;33.52;30.55;100298.28;4958279;29;20400;-85
2022/07/15 07:36:03;;;;;;;13.75;2.30;;;;;;;33.46;30.96;100294.06;4958157;29;20042;-84
2022/07/15 07:38:28;;;;;;;9.40;2.00;;;;;;;33.63;30.24;100299.63;4958538;29;20392;-85
2022/07/15 07:40:54;;;;;;;9.98;2.40;;;;;;;33.93;30.09;100300.66;4943786;29;20042;-85
2022/07/15 07:43:19;;;;;;;6.63;2.00;;;;;;;34.44;29.25;100300.63;4960613;29;20038;-84
2022/07/15 07:45:46;;;;;;;13.98;2.42;;;;;;;35.00;28.45;100299.53;4945607;29;20035;-86
2022/07/15 07:48:11;;;;;;;9.95;2.05;;;;;;;35.60;27.26;100304.00;4968478;29;20035;-86
2022/07/15 07:50:38;;;;;;;7.28;1.95;;;;;;;35.35;27.20;100304.94;4969688;29;20043;-83
2022/07/15 07:53:04;;;;;;;4.47;1.70;;;;;;;35.20;27.31;100304.34;4969954;29;20035;-84
2022/07/15 07:55:29;;;;;;;7.35;1.60;;;;;;;34.82;28.49;100303.50;4963257;29;20032;-83
2022/07/15 07:57:56;;;;;;;18.83;2.30;;;;;;;34.71;28.43;100296.72;4961372;29;20031;-84
2022/07/15 08:00:26;;;;;;;14.45;2.58;;;;;;;34.18;29.73;100295.16;4959808;29;20043;-87
2022/07/15 08:02:52;;;;;;;13.60;1.90;;;;;;;34.35;29.67;100288.03;4964169;29;20406;-86
2022/07/15 08:05:18;;;;;;;10.18;1.92;;;;;;;35.20;28.15;100287.81;4943332;29;20512;-83
2022/07/15 08:07:43;;;;;;;12.88;2.05;;;;;;;34.54;28.58;100296.72;4940289;28;20067;-85
2022/07/15 08:10:11;;;;;;;12.48;2.35;;;;;;;34.33;29.39;100284.81;4956783;29;20066;-86
2022/07/15 08:12:40;;;;;;;18.90;2.60;;;;;;;34.83;29.02;100288.63;4942239;29;20576;-85
2022/07/15 08:15:08;;;;;;;16.10;2.00;;;;;;;35.63;28.11;100292.34;4957062;29;20038;-86
2022/07/15 08:17:34;;;;;;;10.32;1.98;;;;;;;35.72;27.75;100288.38;4940317;29;20078;-88
2022/07/15 08:20:00;;;;;;;13.60;2.33;;;;;;;35.49;28.42;100288.97;4939964;29;20496;-84
2022/07/15 08:22:26;;;;;;;11.15;1.88;;;;;;;35.51;28.31;100284.75;4957508;29;20059;-86
2022/07/15 08:24:51;;;;;;;3.50;1.90;;;;;;;35.83;27.93;100283.25;4957104;29;20119;-87
2022/07/15 08:27:18;;;;;;;9.02;2.20;;;;;;;35.40;28.18;100285.47;4957113;29;20032;-84
2022/07/15 08:29:46;;;;;;;16.20;2.22;;;;;;;35.96;27.72;100282.19;4956622;29;20061;-86
2022/07/15 08:32:12;;;;;;;4.80;2.00;;;;;;;35.99;27.18;100275.19;4956925;29;20453;-86
2022/07/15 08:34:37;;;;;;;8.35;1.85;;;;;;;36.07;26.85;100286.16;4957230;29;20096;-84
2022/07/15 08:37:03;;;;;;;10.98;1.90;;;;;;;36.71;26.50;100269.97;4939660;29;20098;-87
2022/07/15 08:39:28;;;;;;;6.95;2.05;;;;;;;36.59;26.48;100277.44;4957175;29;20035;-86
2022/07/15 08:41:54;;;;;;;7.88;2.13;;;;;;;35.90;27.60;100278.00;4957169;29;20043;-86
2022/07/15 08:44:40;;;;;;;10.73;2.38;;;;;;;36.17;27.21;100277.47;4957156;29;20044;-84
2022/07/15 08:47:06;;;;;;;9.68;2.20;;;;;;;36.29;26.95;100272.00;4965456;29;20039;-85
2022/07/15 08:49:34;;;;;;;6.10;2.10;;;;;;;36.21;27.50;100272.09;4975945;29;20405;-84
2022/07/15 08:52:01;;;;;;;5.93;1.85;;;;;;;35.78;28.67;100259.44;4980504;28;20027;-84
2022/07/15 08:54:28;;;;;;;5.22;1.92;;;;;;;36.43;27.89;100268.94;4980367;28;20043;-84
2022/07/15 08:56:54;;;;;;;17.52;2.78;;;;;;;36.82;27.10;100270.34;4943262;29;20046;-86
2022/07/15 08:59:20;;;;;;;6.40;2.13;;;;;;;37.09;26.42;100264.16;4956433;29;20043;-86
2022/07/15 09:01:48;;;;;;;8.75;2.33;;;;;;;37.65;25.95;100258.84;4939355;29;20078;-86
2022/07/15 09:04:15;;;;;;;4.20;1.83;;;;;;;37.40;26.16;100268.28;4956316;29;20441;-86
2022/07/15 09:06:46;;;;;;;8.77;2.10;;;;;;;37.19;26.34;100265.63;4956356;29;20054;-86
2022/07/15 09:09:17;;;;;;;10.57;2.17;;;;;;;37.44;26.50;100258.16;4956520;29;20050;-88
2022/07/15 09:11:43;;;;;;;7.85;2.13;;;;;;;37.32;26.27;100253.44;4957130;29;20366;-86
2022/07/15 09:14:13;;;;;;;7.15;2.10;;;;;;;37.59;26.14;100261.03;4958325;29;20041;-87
2022/07/15 09:16:42;;;;;;;6.40;2.53;;;;;;;38.30;25.07;100257.59;4956647;29;20489;-87
2022/07/15 09:19:08;;;;;;;7.10;2.25;;;;;;;38.29;24.83;100251.22;4956391;29;20045;-86
2022/07/15 09:21:34;;;;;;;6.05;2.20;;;;;;;38.32;24.79;100254.47;4939817;29;20481;-87
2022/07/15 09:24:17;;;;;;;17.15;2.20;;;;;;;38.66;24.33;100256.59;4957295;29;20086;-89
2022/07/15 09:26:42;;;;;;;8.10;2.08;;;;;;;38.65;24.89;100252.19;4938683;29;20050;-87
2022/07/15 09:36:01;;;;;;;11.65;2.20;;;;;;;36.91;26.63;100235.13;4955647;29;20134;-86
2022/07/15 09:37:59;;;;;;;3.28;1.98;;;;;;;36.59;27.35;100239.53;4958416;29;20046;-87
2022/07/15 09:40:25;;;;;;;5.07;2.00;;;;;;;36.69;27.08;100235.56;4956161;29;20445;-89
2022/07/15 09:43:06;;;;;;;5.10;2.10;;;;;;;37.26;26.55;100239.03;4941139;29;20071;-86
2022/07/15 09:45:35;;;;;;;12.53;1.97;;;;;;;37.27;26.27;100226.84;4956877;29;20114;-88
2022/07/15 09:48:08;;;;;;;9.63;2.20;;;;;;;37.65;26.09;100231.19;4957317;29;20287;-87
2022/07/15 09:50:35;;;;;;;6.00;2.00;;;;;;;37.57;25.90;100234.88;4956849;29;20043;-88
2022/07/15 09:53:05;;;;;;;4.55;1.80;;;;;;;37.65;25.69;100225.66;4939692;29;20069;-88
2022/07/15 09:55:31;;;;;;;6.60;2.22;;;;;;;37.83;25.95;100224.19;4923280;29;20031;-87
2022/07/15 09:57:59;;;;;;;12.10;2.13;;;;;;;37.26;26.38;100219.69;4940829;29;20094;-86
2022/07/15 10:00:27;;;;;;;6.47;2.20;;;;;;;36.92;26.47;100225.69;4956478;29;20074;-86
2022/07/15 10:02:54;;;;;;;7.53;1.98;;;;;;;37.01;26.48;100218.09;4940627;29;20131;-91
2022/07/15 10:05:19;;;;;;;5.57;2.50;;;;;;;37.13;26.33;100215.31;4976566;28;20062;-87
2022/07/15 10:07:48;;;;;;;5.18;2.03;;;;;;;37.33;26.81;100213.56;4961822;28;20030;-89
2022/07/15 10:10:14;;;;;;;7.70;1.80;;;;;;;37.66;26.43;100218.94;4941801;28;20039;-91
2022/07/15 10:12:53;;;;;;;7.35;1.80;;;;;;;37.71;26.46;100218.72;4978158;28;20035;-92
2022/07/15 10:15:49;;;;;;;6.95;2.33;;;;;;;37.88;26.12;100212.06;4980873;28;20480;-88
2022/07/15 10:19:03;;;;;;;4.65;2.40;;;;;;;37.99;25.94;100204.91;4982323;28;20062;-92
2022/07/15 10:21:45;;;;;;;5.97;2.03;;;;;;;38.37;25.02;100207.16;4909459;28;20058;-90
2022/07/15 10:24:34;;;;;;;4.15;1.95;;;;;;;38.10;24.94;100211.53;4975830;28;20070;-90
2022/07/15 10:27:21;;;;;;;7.80;2.15;;;;;;;37.83;25.13;100210.34;4980817;28;20099;-88
2022/07/15 10:29:51;;;;;;;5.68;2.00;;;;;;;38.40;25.46;100206.44;4978255;28;20031;-89
2022/07/15 10:32:16;;;;;;;15.65;2.38;;;;;;;38.79;24.27;100199.94;4965308;28;20043;-90
2022/07/15 10:34:42;;;;;;;6.97;2.03;;;;;;;38.90;24.71;100192.72;4964458;28;20176;-89
2022/07/15 10:37:12;;;;;;;8.43;2.03;;;;;;;39.03;23.90;100193.41;4981385;28;20046;-87
2022/07/15 10:39:57;;;;;;;7.70;1.88;;;;;;;38.85;23.49;100194.97;4965564;28;20060;-89
2022/07/15 10:42:24;;;;;;;8.18;1.88;;;;;;;39.02;23.40;100195.38;4963253;28;20039;-88
2022/07/15 10:45:00;;;;;;;4.60;1.65;;;;;;;39.34;23.61;100189.78;4958362;28;20062;-89
2022/07/15 10:47:25;;;;;;;2.25;1.70;;;;;;;40.10;22.65;100189.81;4956659;28;20030;-89
2022/07/15 10:49:51;;;;;;;5.00;2.00;;;;;;;39.65;22.63;100184.09;4977075;28;20151;-90
2022/07/15 10:52:20;;;;;;;7.53;2.00;;;;;;;38.97;23.21;100175.44;4970636;28;20093;-88
2022/07/15 10:54:49;;;;;;;2.63;1.90;;;;;;;38.74;23.65;100178.03;4963162;28;20031;-83
2022/07/15 10:57:17;;;;;;;4.68;1.90;;;;;;;38.71;23.49;100174.00;4976557;28;20134;-85
2022/07/15 10:59:54;;;;;;;5.72;1.80;;;;;;;38.46;23.81;100167.03;4977289;28;20487;-85
2022/07/15 11:02:23;;;;;;;11.35;2.20;;;;;;;38.47;24.04;100167.84;4962003;28;20031;-85
2022/07/15 11:04:51;;;;;;;3.53;1.70;;;;;;;38.50;23.66;100164.38;4978026;28;20441;-85
2022/07/15 11:07:17;;;;;;;5.68;1.90;;;;;;;38.66;23.47;100154.09;4968234;28;20125;-83
2022/07/15 11:09:54;;;;;;;3.78;1.90;;;;;;;38.98;23.20;100155.66;4977542;28;20447;-82
2022/07/15 11:12:32;;;;;;;3.15;1.60;;;;;;;39.38;22.75;100157.41;4973496;28;20031;-84
2022/07/15 11:15:04;;;;;;;4.75;1.73;;;;;;;39.78;22.27;100160.63;4976326;28;20463;-81
2022/07/15 11:17:29;;;;;;;8.13;1.90;;;;;;;40.01;21.88;100158.69;4971499;28;20110;-81
2022/07/15 11:20:11;;;;;;;8.27;1.92;;;;;;;39.80;22.21;100158.28;4977049;28;20441;-83
2022/07/15 11:22:45;;;;;;;;;;;;;;;39.91;21.99;100153.72;4977845;28;20514;-85
2022/07/15 11:25:22;;;;;;;4.68;1.77;;;;;;;38.65;23.48;100141.38;4976871;28;20834;-81
2022/07/15 11:28:01;;;;;;;3.97;1.40;;;;;;;38.69;23.41;100142.28;4976931;28;20035;-83
2022/07/15 11:30:33;;;;;;;4.07;1.85;;;;;;;38.76;23.80;100148.00;4962430;28;20061;-81
2022/07/15 11:33:00;;;;;;;2.88;1.77;;;;;;;38.32;24.10;100138.19;4976779;28;20045;-82
2022/07/15 11:35:30;;;;;;;7.32;1.80;;;;;;;38.33;24.14;100139.75;4976578;28;20432;-81
2022/07/15 11:38:01;;;;;;;7.00;2.10;;;;;;;38.05;24.11;100137.84;4976716;28;20085;-82
2022/07/15 11:45:59;;;;;;;6.85;1.70;;;;;;;37.27;24.93;100121.78;4974542;28;20050;-82
2022/07/15 11:48:25;;;;;;;3.78;1.50;;;;;;;37.17;25.58;100125.03;4976760;28;20027;-82
2022/07/15 11:50:56;;;;;;;7.53;2.30;;;;;;;37.22;25.50;100119.25;4977395;28;20045;-82
2022/07/15 11:53:22;;;;;;;7.30;2.97;;;;;;;37.03;25.47;100124.59;4981863;28;20429;-85
2022/07/15 11:55:57;;;;;;;4.07;2.10;;;;;;;36.71;26.03;100122.78;4989290;28;20015;-83
2022/07/15 11:58:36;;;;;;;4.55;2.90;;;;;;;36.82;25.87;100112.88;4986088;28;20046;-83
2022/07/15 12:01:10;;;;;;;8.35;1.95;;;;;;;36.52;26.36;100115.03;4992869;28;20411;-83
2022/07/15 12:03:42;;;;;;;6.75;1.90;;;;;;;36.66;26.05;100109.19;4987854;28;20054;-81
2022/07/15 12:06:10;;;;;;;;;;;;;;;36.61;26.06;100110.22;4977423;28;20027;-83
2022/07/15 12:08:51;;;;;;;8.00;2.00;;;;;;;36.48;26.34;100099.50;4975964;28;19914;-81
2022/07/15 12:11:19;;;;;;;4.93;1.92;;;;;;;36.28;26.40;100103.97;4976099;28;20043;-88
2022/07/15 12:13:48;;;;;;;9.52;1.75;;;;;;;36.39;26.76;100096.88;4942540;29;20118;-82
2022/07/15 12:16:18;;;;;;;6.63;2.22;;;;;;;36.37;26.77;100099.16;4979026;28;20496;-83
2022/07/15 12:18:45;;;;;;;6.15;1.83;;;;;;;36.23;26.86;100090.38;4979055;28;20110;-86
2022/07/15 12:21:10;;;;;;;7.30;2.13;;;;;;;36.33;26.47;100086.41;4977390;28;20031;-87
2022/07/15 12:23:57;;;;;;;2.95;1.63;;;;;;;36.13;26.88;100088.88;4978467;28;20038;-92
2022/07/15 12:26:23;;;;;;;4.38;2.00;;;;;;;36.15;26.82;100081.09;4959813;28;20034;-83
2022/07/15 12:28:57;;;;;;;3.03;1.60;;;;;;;36.44;26.78;100082.00;4961110;28;20114;-89
2022/07/15 12:31:28;;;;;;;5.68;2.17;;;;;;;36.30;26.70;100076.81;4972020;28;20508;-87
2022/07/15 12:33:55;;;;;;;9.60;2.15;;;;;;;36.12;27.32;100070.75;4977100;28;20519;-89
2022/07/15 12:36:23;;;;;;;4.50;2.10;;;;;;;35.96;27.01;100075.28;4976588;28;20472;-85
2022/07/15 12:39:07;;;;;;;4.90;1.98;;;;;;;36.05;26.82;100073.22;4975812;28;20043;-87
2022/07/15 12:41:35;;;;;;;4.53;1.88;;;;;;;36.20;26.75;100078.09;4977858;28;20035;-91
2022/07/15 12:44:03;;;;;;;8.35;1.55;;;;;;;36.36;26.98;100067.16;4963845;28;20108;-90
2022/07/15 12:46:57;;;;;;;4.22;2.17;;;;;;;35.97;27.86;100063.06;4969290;28;20121;-87
2022/07/15 12:49:41;;;;;;;9.63;1.88;;;;;;;35.96;27.72;100067.00;4957231;28;20031;-92
2022/07/15 12:52:23;;;;;;;3.92;1.63;;;;;;;36.01;27.47;100064.00;4970146;28;21422;-90
2022/07/15 12:54:52;;;;;;;4.53;1.88;;;;;;;35.91;27.38;100067.22;4977681;28;20031;-92
2022/07/15 12:57:21;;;;;;;9.73;2.55;;;;;;;35.86;27.39;100067.44;4967559;28;20488;-91
2022/07/15 13:00:00;;;;;;;14.18;2.10;;;;;;;35.91;27.46;100058.94;4965560;28;20026;-89
2022/07/15 13:02:27;;;;;;;7.75;2.10;;;;;;;36.01;28.36;100058.50;4977130;28;20045;-89
2022/07/15 13:04:53;;;;;;;10.13;2.72;;;;;;;35.91;28.40;100052.59;4973319;28;20158;-89